SUCCESS DAM (SCC)

Elevation: 692' · TULE R basin · Operator: US Army Corps of Engineers

Provisional data, subject to change.
Query executed Monday at 19:16:54   clock

Select a sensor type for a plot of data.
Note: Reservoir Flows are daily averages.

Earlier

Date RES ELE    STORAGE    RES CHG    TOC STO    ABV TOC    OUTFLOW    INFLOW    FNF    PPT INC    PPTINC4    TEMP MN    TEMP MX    WINDLEN    EVP PAN   
 FEET   AF   AF   AF   AF   CFS   CFS   CFS   INCHES   INCHES   DEG F   DEG F   MILES   INCHES  
01/09/2016 595.96 10598 -53 7300 3298 220 194 194 0.03 0.00 5 12 68 0.04
01/10/2016 595.80 10513 -85 7300 3213 216 174 174 0.00 0.03 6 14 57 0.04
01/11/2016 595.64 10428 -85 7300 3128 220 178 178 0.00 0.00 5 15 63 0.06
01/12/2016 595.38 10292 -136 7300 2916 221 153 153 0.00 0.00 4 15 59 0.06
01/13/2016 595.07 10132 -160 7700 2432 215 135 135 0.00 0.00 5 18 57 0.06
01/14/2016 594.76 9973 -159 7700 2273 216 137 137 0.00 0.00 3 14 67 0.05
01/15/2016 594.41 9795 -178 7700 2095 215 127 127 0.01 0.00 8 17 66 0.06
01/16/2016 594.06 9620 -175 7700 1920 217 130 130 0.00 0.00 8 17 63 0.07
01/17/2016 593.68 9433 -187 7700 1733 217 124 124 0.00 0.01 7 19 77 0.07
01/18/2016 593.36 9277 -156 7700 1577 216 139 139 0.25 0.00 7 18 63 0.06
01/19/2016 594.42 9800 523 7300 2500 215 479 479 0.61 0.25 8 14 77 0.03
01/20/2016 596.85 11079 1279 7300 3779 302 948 948 0.02 0.62 7 17 64 0.06
01/21/2016 597.03 11178 99 7300 3878 380 431 431 0.02 0.00 4 17 53 0.06
01/22/2016 596.72 11008 -170 7300 3708 396 312 312 0.00 0.00 7 21 74 0.09
01/23/2016 596.52 10899 -109 7300 3599 391 336 337 0.36 0.01 6 14 66 0.04
01/24/2016 596.53 10904 5 7300 3604 395 398 398 0.01 0.36 5 12 52 0.04
01/25/2016 596.11 10678 -226 7300 3378 395 282 282 0.03 0.00 6 14 37 0.05
01/26/2016 595.56 10386 -292 7300 3086 390 245 245 0.00 0.00 6 18 70 0.08
01/27/2016 594.90 10044 -342 7300 2744 371 200 200 0.00 0.00 5 16 52 0.06
01/28/2016 594.13 9655 -389 7300 2355 361 166 166 0.00 0.00 5 16 67 0.07
01/29/2016 593.28 9238 -417 7700 1538 361 152 152 0.00 0.00 6 19 65 0.08
01/30/2016 592.87 9041 -197 7300 1741 360 261 261 0.23 0.00 9 13 50 0.02
01/31/2016 596.10 10672 1631 7300 3372 363 1185 1185 1.93 0.24 3 10 80 0.01
02/01/2016 598.08 11768 1096 7621 4147 372 926 926 0.01 1.92 3 11 81 0.07
02/02/2016 598.56 12045 277 7942 4103 375 516 516 0.00 0.00 2 12 62 0.06
02/03/2016 598.63 12086 41 8262 3824 375 397 -- 0.00 0.00 1 14 62 0.08
02/04/2016 598.54 12033 -53 8583 3450 375 350 -- 0.00 0.00 1 15 61 0.08
02/05/2016 598.54 12033 0 8904 3129 307 308 -- 0.00 0.00 2 17 66 0.09
02/06/2016 598.84 12208 175 9225 2983 200 290 -- 0.00 0.00 3 17 61 0.09
02/07/2016 599.09 12356 148 9545 2811 204 280 -- 0.00 0.00 4 19 61 0.09
02/08/2016 -- -- -- -- -- -- -- -- -- 0.00 -- -- -- --

Later | Latest

Warning! This data is preliminary and subject to revision.

Show SCC Map | Plot SCC Data | 1 Month SCC Data | Real-Time SCC Data | SCC Info